Terminal Aerodrome Forecast
Issued by NWS

Home | Current Version | Previous Version | Graphics & Text | Print | Product List | Glossary On
Versions: 1 2 3 4 5 6 7 8 9 10 11 12 13 14 15 16 17
000
FTUS43 KABR 180500
TAFMBG
TAF
KMBG 180526Z 1806/1906 24006KT P6SM SCT100
     FM181500 32015G24KT P6SM BKN040
     FM190100 33008KT P6SM SKC=

USA.gov is the U.S. government's official web portal to all federal, state and local government web resources and services.